Time;durP1;ratioP1;P1;durP2;ratioP2;P2;SDS_P1;SDS_P2;PMS_P1;PMS_P2;Temp;Humidity;BMP_temperature;BMP_pressure;BME280_temperature;BME280_humidity;BME280_pressure;Samples;Min_cycle;Max_cycle;Signal;HPM_P1;HPM_P2
2023/10/07 00:00:48;;;;;;;14.55;6.93;;;10.40;99.90;;;;;;4955890;28;20023;-85
2023/10/07 00:03:21;;;;;;;14.57;7.03;;;10.40;99.90;;;;;;4958630;28;20149;-84
2023/10/07 00:05:47;;;;;;;15.88;6.97;;;10.30;99.90;;;;;;4964929;28;20026;-86
2023/10/07 00:08:19;;;;;;;16.40;7.55;;;10.20;99.90;;;;;;4961864;28;20034;-86
2023/10/07 00:10:49;;;;;;;15.57;8.25;;;10.10;99.90;;;;;;4957869;28;20038;-88
2023/10/07 00:13:20;;;;;;;16.42;7.90;;;10.00;99.90;;;;;;4956929;28;20037;-86
2023/10/07 00:15:50;;;;;;;;;;;10.00;99.90;;;;;;4961567;28;20038;-85
2023/10/07 00:18:18;;;;;;;16.45;7.35;;;10.00;99.90;;;;;;4961644;28;19925;-86
2023/10/07 00:20:54;;;;;;;16.85;7.55;;;10.00;99.90;;;;;;4960432;28;20035;-84
2023/10/07 00:25:50;;;;;;;16.08;6.95;;;9.90;99.90;;;;;;4963149;28;20059;-84
2023/10/07 00:28:27;;;;;;;16.58;7.38;;;10.00;99.90;;;;;;4951649;28;20031;-85
2023/10/07 00:30:55;;;;;;;15.73;7.40;;;9.90;99.90;;;;;;4953025;28;20424;-84
2023/10/07 00:33:22;;;;;;;14.35;6.85;;;;;;;;;;4954506;28;20042;-88
2023/10/07 00:35:54;;;;;;;19.98;7.68;;;9.90;99.90;;;;;;4966692;28;20026;-84
2023/10/07 00:38:23;;;;;;;21.73;8.02;;;9.90;99.90;;;;;;4954600;28;20034;-81
2023/10/07 00:40:54;;;;;;;13.50;7.15;;;9.80;99.90;;;;;;4953747;28;20031;-83
2023/10/07 00:43:30;;;;;;;15.75;7.68;;;9.80;99.90;;;;;;4953739;28;20023;-81
2023/10/07 00:46:28;;;;;;;19.15;7.57;;;9.80;99.90;;;;;;4953276;28;20070;-84
2023/10/07 00:51:42;;;;;;;17.63;8.18;;;9.70;99.90;;;;;;4965897;28;20833;-82
2023/10/07 00:54:57;;;;;;;18.85;7.97;;;;;;;;;;4964873;28;20487;-84
2023/10/07 00:59:50;;;;;;;17.50;7.40;;;9.70;99.90;;;;;;4966438;28;20518;-85
2023/10/07 01:02:23;;;;;;;16.55;8.05;;;9.70;99.90;;;;;;4955224;28;20042;-85
2023/10/07 01:04:49;;;;;;;16.98;7.38;;;9.70;99.90;;;;;;4952377;28;20114;-83
2023/10/07 01:07:19;;;;;;;17.20;7.97;;;9.70;99.90;;;;;;4952931;28;20073;-83
2023/10/07 01:10:00;;;;;;;14.00;7.28;;;10.60;99.90;;;;;;4952728;28;20077;-85
2023/10/07 01:12:35;;;;;;;19.90;7.78;;;9.60;99.90;;;;;;4951043;28;20051;-84
2023/10/07 01:15:03;;;;;;;15.30;7.72;;;9.60;99.90;;;;;;4950712;28;20526;-84
2023/10/07 01:17:30;;;;;;;22.95;7.80;;;9.60;99.90;;;;;;4945326;28;20027;-86
2023/10/07 01:19:57;;;;;;;13.80;7.28;;;9.60;99.90;;;;;;4952560;28;20030;-86
2023/10/07 01:22:35;;;;;;;18.95;8.43;;;9.50;99.90;;;;;;4969989;28;20118;-83
2023/10/07 01:25:06;;;;;;;16.35;7.85;;;;;;;;;;4954699;28;20030;-83
2023/10/07 01:30:34;;;;;;;14.80;7.65;;;;;;;;;;4962865;28;20098;-83
2023/10/07 01:33:25;;;;;;;16.63;7.43;;;;;;;;;;4958147;28;20125;-84
2023/10/07 01:36:16;;;;;;;15.07;7.38;;;9.60;99.90;;;;;;4958109;28;20031;-83
2023/10/07 01:38:44;;;;;;;15.85;7.97;;;;;;;;;;4971815;28;20035;-85
2023/10/07 01:41:14;;;;;;;18.65;7.47;;;;;;;;;;4973269;28;20027;-84
2023/10/07 01:43:41;;;;;;;;;;;9.60;99.90;;;;;;4976283;28;20027;-84
2023/10/07 01:46:10;;;;;;;15.00;7.47;;;;;;;;;;4972059;28;20295;-82
2023/10/07 01:48:43;;;;;;;14.82;7.10;;;9.50;99.90;;;;;;4973930;28;20117;-85
2023/10/07 01:51:14;;;;;;;16.83;7.35;;;9.50;99.90;;;;;;4957747;28;20530;-86
2023/10/07 01:53:40;;;;;;;16.38;7.85;;;10.70;99.90;;;;;;4954142;28;20045;-87
2023/10/07 01:56:06;;;;;;;18.05;7.65;;;9.30;99.90;;;;;;4952791;28;20035;-85
2023/10/07 01:58:32;;;;;;;15.02;7.68;;;9.30;99.90;;;;;;4956851;28;20030;-86
2023/10/07 02:00:59;;;;;;;16.92;7.43;;;;;;;;;;4956473;28;20460;-81
2023/10/07 02:03:25;;;;;;;13.90;7.43;;;;;;;;;;4971736;28;20027;-85
2023/10/07 02:05:52;;;;;;;18.60;7.43;;;;;;;;;;4953821;28;20040;-82
2023/10/07 02:08:25;;;;;;;17.33;7.07;;;9.40;99.90;;;;;;4973343;28;20035;-84
2023/10/07 02:11:06;;;;;;;18.52;7.72;;;9.40;99.90;;;;;;4957343;28;20070;-84
2023/10/07 02:13:32;;;;;;;15.23;7.35;;;;;;;;;;4958739;28;20031;-83
2023/10/07 02:15:58;;;;;;;17.77;7.90;;;;;;;;;;4954238;28;20026;-83
2023/10/07 02:18:28;;;;;;;15.63;7.30;;;;;;;;;;4974379;28;20035;-82
2023/10/07 02:21:12;;;;;;;19.67;7.15;;;;;;;;;;4959952;28;20031;-83
2023/10/07 02:23:43;;;;;;;17.23;7.82;;;9.50;99.90;;;;;;4957717;28;20072;-84
2023/10/07 02:26:19;;;;;;;14.07;6.72;;;9.40;99.90;;;;;;4970907;28;20026;-85
2023/10/07 02:28:50;;;;;;;16.20;7.07;;;9.50;99.90;;;;;;4955133;28;20057;-84
2023/10/07 02:31:20;;;;;;;16.77;8.35;;;9.40;99.90;;;;;;4938493;28;20043;-88
2023/10/07 02:33:51;;;;;;;16.77;7.13;;;9.40;99.90;;;;;;4957041;28;20103;-86
2023/10/07 02:39:00;;;;;;;17.45;8.30;;;9.40;99.90;;;;;;4976334;28;20030;-83
2023/10/07 02:41:26;;;;;;;17.48;6.97;;;9.40;99.90;;;;;;4957892;28;20014;-84
2023/10/07 02:43:52;;;;;;;17.30;7.18;;;9.20;99.90;;;;;;4957790;28;20035;-86
2023/10/07 02:49:14;;;;;;;14.68;7.80;;;9.20;99.90;;;;;;4952325;28;20031;-85
2023/10/07 02:51:45;;;;;;;19.75;8.10;;;10.30;99.90;;;;;;4955875;28;20034;-86
2023/10/07 02:54:18;;;;;;;15.07;7.13;;;9.20;99.90;;;;;;4957949;28;20080;-88
2023/10/07 02:57:09;;;;;;;15.10;7.10;;;9.30;99.90;;;;;;4955835;28;20077;-84
2023/10/07 02:59:41;;;;;;;15.85;7.10;;;9.10;99.90;;;;;;4960129;28;20491;-88
2023/10/07 03:05:13;;;;;;;16.33;6.78;;;9.10;99.90;;;;;;4981973;28;20554;-86
2023/10/07 03:07:41;;;;;;;15.57;7.35;;;9.10;99.90;;;;;;4964930;28;20034;-86
2023/10/07 03:10:29;;;;;;;14.68;7.38;;;10.30;99.90;;;;;;4950277;29;20031;-84
2023/10/07 03:12:58;;;;;;;14.48;7.00;;;9.10;99.90;;;;;;4943780;29;20035;-83
2023/10/07 03:18:03;;;;;;;16.80;7.28;;;9.10;99.90;;;;;;4982203;28;20023;-82
2023/10/07 03:20:31;;;;;;;15.15;6.38;;;9.00;99.90;;;;;;4962631;28;20023;-85
2023/10/07 03:23:18;;;;;;;15.00;7.15;;;9.00;99.90;;;;;;4964597;28;20054;-84
2023/10/07 03:28:19;;;;;;;12.38;7.13;;;9.00;99.90;;;;;;4980585;28;20102;-85
2023/10/07 03:30:51;;;;;;;17.95;7.55;;;9.30;99.90;;;;;;4964733;28;20491;-84
2023/10/07 03:33:23;;;;;;;14.15;7.18;;;8.90;99.90;;;;;;4967319;28;20130;-85
2023/10/07 03:38:25;;;;;;;14.50;7.13;;;;;;;;;;4980321;28;20026;-84
2023/10/07 03:40:54;;;;;;;16.25;7.35;;;;;;;;;;4963002;28;20467;-82
2023/10/07 03:43:21;;;;;;;17.05;7.90;;;8.80;99.90;;;;;;4962185;28;20019;-83
2023/10/07 03:45:46;;;;;;;16.65;7.20;;;8.80;99.90;;;;;;4955436;28;20074;-87
2023/10/07 03:48:24;;;;;;;17.08;7.70;;;8.80;99.90;;;;;;4981465;28;20483;-85
2023/10/07 03:51:04;;;;;;;13.98;7.28;;;8.70;99.90;;;;;;4973433;28;20027;-82
2023/10/07 03:53:44;;;;;;;14.40;6.65;;;8.80;99.90;;;;;;4969632;28;20106;-83
2023/10/07 03:56:10;;;;;;;17.80;7.82;;;8.70;99.90;;;;;;4969395;28;20030;-85
2023/10/07 03:58:36;;;;;;;15.05;6.88;;;8.80;99.90;;;;;;4963060;28;20543;-84
2023/10/07 04:01:16;;;;;;;15.98;6.75;;;8.70;99.90;;;;;;4956152;28;20039;-84
2023/10/07 04:03:50;;;;;;;13.93;6.37;;;8.70;99.90;;;;;;4957790;28;20035;-86
2023/10/07 04:06:21;;;;;;;16.15;7.30;;;8.60;99.90;;;;;;4961169;28;20499;-84
2023/10/07 04:08:52;;;;;;;16.13;8.00;;;8.70;99.90;;;;;;4955317;28;20104;-83
2023/10/07 04:11:25;;;;;;;15.30;6.82;;;8.70;99.90;;;;;;4959993;28;20038;-85
2023/10/07 04:13:53;;;;;;;15.02;7.00;;;9.70;99.90;;;;;;4956742;28;20753;-84
2023/10/07 04:16:23;;;;;;;19.08;7.13;;;8.70;99.90;;;;;;4967567;28;20050;-86
2023/10/07 04:19:06;;;;;;;12.90;7.15;;;8.70;99.90;;;;;;4963811;28;20033;-86
2023/10/07 04:21:39;;;;;;;15.98;7.25;;;8.70;99.90;;;;;;4963953;28;20057;-85
2023/10/07 04:24:09;;;;;;;14.98;6.90;;;8.70;99.90;;;;;;4964385;28;20038;-86
2023/10/07 04:26:39;;;;;;;13.98;7.28;;;8.70;99.90;;;;;;4962950;28;20031;-86
2023/10/07 04:29:14;;;;;;;14.68;6.97;;;8.70;99.90;;;;;;4967107;28;20066;-85
2023/10/07 04:31:45;;;;;;;15.32;7.60;;;8.80;99.90;;;;;;4968677;28;20050;-86
2023/10/07 04:34:18;;;;;;;16.10;7.55;;;8.70;99.90;;;;;;4967377;28;20031;-84
2023/10/07 04:39:38;;;;;;;15.13;7.30;;;8.70;99.90;;;;;;4984980;28;20027;-85
2023/10/07 04:42:06;;;;;;;13.05;6.90;;;9.00;99.90;;;;;;4967520;28;20573;-87
2023/10/07 04:52:33;;;;;;;14.43;7.13;;;9.10;99.90;;;;;;4986857;28;20291;-87
2023/10/07 04:55:01;;;;;;;14.93;6.97;;;8.60;99.90;;;;;;4964803;28;20031;-83
2023/10/07 04:57:44;;;;;;;18.42;7.53;;;8.60;99.90;;;;;;4964816;28;20027;-84
2023/10/07 05:03:14;;;;;;;16.42;7.47;;;8.60;99.90;;;;;;4986837;28;20050;-85
2023/10/07 05:05:43;;;;;;;16.90;8.10;;;8.60;99.90;;;;;;4982846;28;20050;-82
2023/10/07 05:08:17;;;;;;;14.80;6.70;;;8.60;99.90;;;;;;4974228;28;20030;-85
2023/10/07 05:10:50;;;;;;;15.77;7.60;;;8.60;99.90;;;;;;4993884;28;20041;-86
2023/10/07 05:13:16;;;;;;;14.10;7.35;;;8.70;99.90;;;;;;4973343;28;20030;-86
2023/10/07 05:15:42;;;;;;;14.07;6.90;;;8.60;99.90;;;;;;4970187;28;20127;-86
2023/10/07 05:18:16;;;;;;;13.13;7.55;;;8.80;99.90;;;;;;4968686;28;20521;-84
2023/10/07 05:20:46;;;;;;;12.25;6.78;;;8.80;99.90;;;;;;4979465;28;20034;-86
2023/10/07 05:23:14;;;;;;;14.45;6.78;;;;;;;;;;4968511;28;20118;-85
2023/10/07 05:25:48;;;;;;;15.52;6.75;;;8.70;99.90;;;;;;4969715;28;20124;-85
2023/10/07 05:28:20;;;;;;;15.35;6.72;;;8.70;99.90;;;;;;4970824;28;20035;-85
2023/10/07 05:30:52;;;;;;;16.58;7.35;;;8.70;99.90;;;;;;4962748;29;20031;-84
2023/10/07 05:33:25;;;;;;;14.45;7.55;;;9.10;99.90;;;;;;4970314;28;20030;-87
2023/10/07 05:36:14;;;;;;;18.58;7.82;;;8.70;99.90;;;;;;4980112;28;20400;-83
2023/10/07 05:38:44;;;;;;;14.25;7.28;;;8.70;99.90;;;;;;4970745;28;20130;-86
2023/10/07 05:41:14;;;;;;;17.15;6.57;;;8.70;99.90;;;;;;4987546;28;20027;-85
2023/10/07 05:43:44;;;;;;;14.65;7.18;;;8.70;99.90;;;;;;4976717;28;20023;-86
2023/10/07 05:46:11;;;;;;;17.35;7.03;;;8.70;99.90;;;;;;4967664;28;20031;-81
2023/10/07 05:48:38;;;;;;;14.38;7.13;;;8.70;99.90;;;;;;4969412;28;20117;-87
2023/10/07 05:51:07;;;;;;;15.55;7.00;;;8.70;99.90;;;;;;4967005;28;20026;-84
2023/10/07 05:53:38;;;;;;;17.23;7.30;;;8.70;99.90;;;;;;4997186;28;20026;-83
2023/10/07 05:56:07;;;;;;;20.83;7.03;;;;;;;;;;4985894;28;20022;-84
2023/10/07 05:58:37;;;;;;;15.55;6.47;;;8.70;99.90;;;;;;4969107;28;20447;-85
2023/10/07 06:01:03;;;;;;;23.45;7.13;;;;;;;;;;4967896;28;20102;-84
2023/10/07 06:03:30;;;;;;;18.23;7.35;;;8.80;99.90;;;;;;4985832;28;20022;-84
2023/10/07 06:05:59;;;;;;;16.70;7.07;;;8.90;99.90;;;;;;4970676;28;20038;-85
2023/10/07 06:08:27;;;;;;;18.35;7.70;;;8.90;99.90;;;;;;4967968;28;20050;-82
2023/10/07 06:10:56;;;;;;;13.73;7.03;;;8.70;99.90;;;;;;4965847;28;20081;-83
2023/10/07 06:13:26;;;;;;;19.65;7.75;;;9.40;99.90;;;;;;4967988;28;20097;-87
2023/10/07 06:15:55;;;;;;;16.38;7.28;;;9.00;99.90;;;;;;4960260;28;20066;-85
2023/10/07 06:18:24;;;;;;;15.23;7.15;;;9.10;99.90;;;;;;4947922;28;20031;-83
2023/10/07 06:20:54;;;;;;;14.82;7.32;;;9.10;99.90;;;;;;4985600;28;20010;-82
2023/10/07 06:23:24;;;;;;;15.85;7.18;;;9.10;99.90;;;;;;4955879;28;20030;-82
2023/10/07 06:25:51;;;;;;;14.87;6.93;;;9.10;99.90;;;;;;4964022;28;20454;-84
2023/10/07 06:31:10;;;;;;;16.05;7.07;;;9.20;99.90;;;;;;4982260;28;20121;-87
2023/10/07 06:33:39;;;;;;;16.33;8.30;;;;;;;;;;4965725;28;20084;-84
2023/10/07 06:36:06;;;;;;;14.93;7.13;;;9.10;99.90;;;;;;4965986;28;20031;-85
2023/10/07 06:38:33;;;;;;;15.68;7.15;;;;;;;;;;4966278;28;20460;-84
2023/10/07 06:40:59;;;;;;;15.52;7.30;;;;;;;;;;4959672;28;20024;-86
2023/10/07 06:43:25;;;;;;;16.15;6.90;;;9.20;99.90;;;;;;4964695;28;20467;-85
2023/10/07 06:45:54;;;;;;;17.67;7.72;;;9.30;99.90;;;;;;4966878;28;20034;-82
2023/10/07 06:48:24;;;;;;;17.25;7.38;;;9.30;99.90;;;;;;4966930;28;20022;-85
2023/10/07 06:50:53;;;;;;;15.35;7.55;;;9.20;99.90;;;;;;4966032;28;20034;-84
2023/10/07 06:53:22;;;;;;;17.60;8.50;;;9.30;99.90;;;;;;4967261;28;20031;-85
2023/10/07 06:55:51;;;;;;;16.80;7.27;;;10.10;99.90;;;;;;4958047;28;20063;-87
2023/10/07 06:58:22;;;;;;;17.25;7.47;;;;;;;;;;4964691;28;20391;-82
2023/10/07 07:00:52;;;;;;;14.25;6.63;;;9.60;99.90;;;;;;4958219;28;20520;-83
2023/10/07 07:03:18;;;;;;;14.93;6.57;;;;;;;;;;4962464;28;20114;-84
2023/10/07 07:05:48;;;;;;;12.60;7.13;;;9.80;99.90;;;;;;4966008;28;20022;-84
2023/10/07 07:08:14;;;;;;;17.48;7.05;;;;;;;;;;4957664;28;20063;-84
2023/10/07 07:10:40;;;;;;;16.05;6.82;;;;;;;;;;4981878;28;20027;-85
2023/10/07 07:13:13;;;;;;;22.75;7.68;;;10.00;99.90;;;;;;4968292;28;20550;-81
2023/10/07 07:15:41;;;;;;;13.85;6.72;;;10.00;99.90;;;;;;4960986;28;20041;-83
2023/10/07 07:23:25;;;;;;;16.92;6.68;;;10.00;99.90;;;;;;4976733;28;20472;-83
2023/10/07 07:28:32;;;;;;;13.10;6.30;;;10.10;99.90;;;;;;4966767;28;20058;-82
2023/10/07 07:30:59;;;;;;;16.35;6.60;;;10.20;99.90;;;;;;4958281;28;20084;-82
2023/10/07 07:33:29;;;;;;;15.80;6.82;;;10.20;99.90;;;;;;4956608;29;20035;-86
2023/10/07 07:35:56;;;;;;;14.50;6.97;;;10.30;99.90;;;;;;4951150;29;20027;-83
2023/10/07 07:38:29;;;;;;;14.27;6.75;;;10.30;99.90;;;;;;4976559;28;20035;-85
2023/10/07 07:41:05;;;;;;;12.88;6.15;;;;;;;;;;4954039;28;20035;-84
2023/10/07 07:43:34;;;;;;;13.65;6.57;;;10.50;99.90;;;;;;4961170;28;20085;-81
2023/10/07 07:46:18;;;;;;;16.88;6.30;;;10.50;99.90;;;;;;4959706;28;20195;-85
2023/10/07 07:48:50;;;;;;;14.38;6.80;;;10.50;99.90;;;;;;4960688;28;20037;-82
2023/10/07 07:51:17;;;;;;;13.55;6.47;;;10.60;99.90;;;;;;4983007;28;20038;-83
2023/10/07 07:53:46;;;;;;;14.15;6.85;;;10.90;99.90;;;;;;4980202;28;20046;-83
2023/10/07 07:56:15;;;;;;;14.73;6.40;;;10.90;99.90;;;;;;4962959;28;20069;-80
2023/10/07 07:58:47;;;;;;;13.30;6.07;;;10.90;99.90;;;;;;4967371;28;20061;-83
2023/10/07 08:01:18;;;;;;;13.73;6.20;;;11.00;99.90;;;;;;4963069;28;20037;-83
2023/10/07 08:03:44;;;;;;;15.57;6.95;;;;;;;;;;4954639;28;20057;-84
2023/10/07 08:06:20;;;;;;;15.32;6.60;;;;;;;;;;4964376;28;20472;-86
2023/10/07 08:08:49;;;;;;;14.90;6.80;;;11.30;99.90;;;;;;4947286;28;20069;-84
2023/10/07 08:11:17;;;;;;;13.20;6.53;;;;;;;;;;4963540;28;20077;-84
2023/10/07 08:13:45;;;;;;;13.32;6.10;;;11.50;99.90;;;;;;4960074;28;20087;-85
2023/10/07 08:16:15;;;;;;;14.25;6.70;;;;;;;;;;4963583;28;20045;-85
2023/10/07 08:18:41;;;;;;;15.65;7.55;;;;;;;;;;4964452;28;20050;-84
2023/10/07 08:21:07;;;;;;;12.18;6.45;;;;;;;;;;4964262;28;20034;-83
2023/10/07 08:23:46;;;;;;;11.77;6.35;;;11.90;99.90;;;;;;4965721;28;20027;-85
2023/10/07 08:26:12;;;;;;;17.35;6.63;;;;;;;;;;4966295;28;20125;-82
2023/10/07 08:28:46;;;;;;;12.57;6.40;;;11.90;99.90;;;;;;4964002;28;20050;-87
2023/10/07 08:31:17;;;;;;;15.35;6.78;;;12.00;99.90;;;;;;4966051;28;20480;-83
2023/10/07 08:33:53;;;;;;;13.48;6.63;;;12.00;99.90;;;;;;4981529;28;20566;-86
2023/10/07 08:36:29;;;;;;;15.38;6.32;;;12.00;99.90;;;;;;4978758;28;20038;-83
2023/10/07 08:38:58;;;;;;;14.50;6.38;;;;;;;;;;4968034;28;20098;-87
2023/10/07 08:41:26;;;;;;;11.93;6.30;;;12.20;99.90;;;;;;4977193;28;20022;-85
2023/10/07 08:44:15;;;;;;;16.13;6.85;;;12.30;99.90;;;;;;4969787;28;20518;-83
2023/10/07 08:46:48;;;;;;;15.88;6.72;;;;;;;;;;4985333;28;20039;-82
2023/10/07 08:49:16;;;;;;;16.00;6.72;;;12.60;99.90;;;;;;4963999;28;20030;-86
2023/10/07 08:51:45;;;;;;;13.30;6.25;;;12.60;99.90;;;;;;4965359;28;20197;-84
2023/10/07 08:54:26;;;;;;;17.98;6.85;;;;;;;;;;4967032;28;20030;-86
2023/10/07 08:56:57;;;;;;;13.52;7.15;;;12.90;99.90;;;;;;4966309;28;20050;-88
2023/10/07 08:59:25;;;;;;;14.48;6.60;;;13.00;99.90;;;;;;4985758;28;20027;-83
2023/10/07 09:01:57;;;;;;;12.07;5.93;;;;;;;;;;4968378;28;20027;-82
2023/10/07 09:04:24;;;;;;;15.18;6.45;;;;;;;;;;4995366;28;20117;-85
2023/10/07 09:06:53;;;;;;;15.65;7.22;;;;;;;;;;4959039;28;20062;-81
2023/10/07 09:09:33;;;;;;;17.15;6.57;;;13.00;99.90;;;;;;4963838;28;20030;-82
2023/10/07 09:12:10;;;;;;;14.82;6.82;;;13.00;99.90;;;;;;4975182;28;20034;-85
2023/10/07 09:14:40;;;;;;;15.63;7.07;;;13.10;99.90;;;;;;4969184;28;20158;-86
2023/10/07 09:17:09;;;;;;;13.50;6.43;;;;;;;;;;4986210;28;20038;-85
2023/10/07 09:19:36;;;;;;;16.33;7.45;;;13.20;99.90;;;;;;4962503;29;20031;-87
2023/10/07 09:22:10;;;;;;;13.63;7.00;;;13.20;99.90;;;;;;4960231;28;20023;-86
2023/10/07 09:24:41;;;;;;;16.40;6.90;;;13.40;99.90;;;;;;4968770;28;20062;-87
2023/10/07 09:27:12;;;;;;;16.20;6.75;;;;;;;;;;4966309;28;20026;-84
2023/10/07 09:29:38;;;;;;;13.50;6.70;;;;;;;;;;4957011;28;20046;-86
2023/10/07 09:32:06;;;;;;;13.75;6.28;;;;;;;;;;4965382;28;20034;-86
2023/10/07 09:34:47;;;;;;;15.43;6.80;;;13.70;99.90;;;;;;4964685;28;20027;-85
2023/10/07 09:37:17;;;;;;;;;;;13.70;99.90;;;;;;4960810;28;20286;-82
2023/10/07 09:39:53;;;;;;;17.23;6.45;;;;;;;;;;4965783;28;19914;-83
2023/10/07 09:42:26;;;;;;;14.70;6.20;;;;;;;;;;4974184;28;20046;-86
2023/10/07 09:47:38;;;;;;;12.68;6.43;;;14.30;99.90;;;;;;4974348;28;20038;-86
2023/10/07 09:50:25;;;;;;;13.13;5.90;;;14.40;99.90;;;;;;4964003;28;20057;-87
2023/10/07 09:53:14;;;;;;;14.80;6.28;;;14.40;99.90;;;;;;4967678;28;20027;-86
2023/10/07 09:56:11;;;;;;;12.40;6.30;;;14.60;99.90;;;;;;4966913;28;20185;-87
2023/10/07 09:58:59;;;;;;;12.45;6.97;;;14.60;99.90;;;;;;4959795;28;20054;-81
2023/10/07 10:01:53;;;;;;;14.75;6.53;;;14.90;99.90;;;;;;4960385;28;20030;-84
2023/10/07 10:04:22;;;;;;;12.52;6.97;;;15.00;99.90;;;;;;4951284;28;20041;-84
2023/10/07 10:07:11;;;;;;;18.23;8.10;;;15.10;99.90;;;;;;4966141;28;20042;-83
2023/10/07 10:12:27;;;;;;;19.88;9.52;;;;;;;;;;4977413;28;20045;-82
2023/10/07 10:15:50;;;;;;;18.30;9.50;;;;;;;;;;4963611;28;20102;-83
2023/10/07 10:17:48;;;;;;;22.75;11.07;;;;;;;;;;4978877;28;20034;-86
2023/10/07 10:20:18;;;;;;;22.83;11.98;;;15.80;99.90;;;;;;4974130;28;20106;-84
2023/10/07 10:22:51;;;;;;;25.55;13.35;;;16.00;99.90;;;;;;4960426;28;20050;-83
2023/10/07 10:25:36;;;;;;;20.83;12.70;;;;;;;;;;4980842;28;20098;-86
2023/10/07 10:28:07;;;;;;;22.17;12.30;;;16.10;99.90;;;;;;4962259;28;20095;-85
2023/10/07 10:30:34;;;;;;;23.25;12.20;;;;;;;;;;4988178;28;20034;-87
2023/10/07 10:33:07;;;;;;;21.55;11.57;;;16.20;99.90;;;;;;4979127;28;20062;-86
2023/10/07 10:35:40;;;;;;;20.67;11.05;;;16.50;99.90;;;;;;4985776;28;20023;-89
2023/10/07 10:38:09;;;;;;;18.85;10.98;;;;;;;;;;4976043;28;20023;-84
2023/10/07 10:40:36;;;;;;;19.88;11.00;;;;;;;;;;4975356;28;20083;-86
2023/10/07 10:43:02;;;;;;;19.35;10.07;;;;;;;;;;4979372;28;20046;-89
2023/10/07 10:45:29;;;;;;;18.90;9.25;;;;;;;;;;4979639;28;20018;-87
2023/10/07 10:47:59;;;;;;;20.50;10.10;;;17.80;99.90;;;;;;4992392;28;20027;-86
2023/10/07 10:50:28;;;;;;;17.35;9.95;;;17.50;99.90;;;;;;4976215;28;20042;-87
2023/10/07 10:52:55;;;;;;;20.08;10.40;;;17.80;99.90;;;;;;4984910;28;20031;-87
2023/10/07 10:55:25;;;;;;;20.17;10.20;;;;;;;;;;4973285;28;20024;-84
2023/10/07 10:57:52;;;;;;;15.85;8.35;;;;;;;;;;4975763;28;20099;-86
2023/10/07 11:00:22;;;;;;;16.80;8.90;;;;;;;;;;4995810;28;20041;-85
2023/10/07 11:02:53;;;;;;;14.10;7.22;;;17.80;99.90;;;;;;4983233;28;20022;-88
2023/10/07 11:05:22;;;;;;;14.55;8.02;;;17.90;99.90;;;;;;4979065;28;20019;-84
2023/10/07 11:07:50;;;;;;;14.10;8.02;;;17.90;99.90;;;;;;4974813;28;20023;-87
2023/10/07 11:10:23;;;;;;;14.85;8.07;;;17.80;99.90;;;;;;4970722;28;20031;-86
2023/10/07 11:12:52;;;;;;;14.75;7.53;;;17.90;99.90;;;;;;4983168;28;20029;-85
2023/10/07 11:15:24;;;;;;;11.88;6.95;;;;;;;;;;4967164;28;20062;-86
2023/10/07 11:17:58;;;;;;;12.85;6.70;;;18.00;99.90;;;;;;4980714;28;20030;-86
2023/10/07 11:20:32;;;;;;;11.90;6.38;;;18.00;99.90;;;;;;4962431;28;20030;-82
2023/10/07 11:22:58;;;;;;;12.15;6.75;;;18.00;99.90;;;;;;4972786;28;20072;-83
2023/10/07 11:25:25;;;;;;;12.48;7.07;;;18.10;99.90;;;;;;4963265;28;20090;-83
2023/10/07 11:27:54;;;;;;;12.57;6.05;;;18.20;99.90;;;;;;4965903;28;20031;-83
2023/10/07 11:30:21;;;;;;;11.95;6.05;;;18.20;99.90;;;;;;4978715;28;20058;-83
2023/10/07 11:32:47;;;;;;;10.60;5.13;;;;;;;;;;4989624;28;20035;-84
2023/10/07 11:35:19;;;;;;;12.02;4.50;;;18.40;99.90;;;;;;4990834;28;20030;-85
2023/10/07 11:37:58;;;;;;;9.60;3.80;;;18.50;99.90;;;;;;4956196;28;20098;-83
2023/10/07 11:40:27;;;;;;;9.60;3.67;;;18.50;99.90;;;;;;4957783;28;20027;-83
2023/10/07 11:42:53;;;;;;;8.52;3.67;;;;;;;;;;4974399;28;20071;-84
2023/10/07 11:45:23;;;;;;;7.05;3.60;;;18.60;99.90;;;;;;4979532;28;20035;-83
2023/10/07 11:47:49;;;;;;;11.65;4.10;;;;;;;;;;4959649;28;20484;-83
2023/10/07 11:50:17;;;;;;;8.57;3.45;;;;;;;;;;4964390;28;20085;-87
2023/10/07 11:52:43;;;;;;;7.32;3.08;;;18.80;99.90;;;;;;4951618;28;20058;-86
2023/10/07 11:55:09;;;;;;;10.00;3.60;;;;;;;;;;4990345;28;20031;-85
2023/10/07 11:57:39;;;;;;;7.47;3.55;;;;;;;;;;4963582;28;20048;-85
2023/10/07 12:00:22;;;;;;;9.48;3.30;;;18.90;99.90;;;;;;4962220;28;20054;-84
2023/10/07 12:02:52;;;;;;;7.07;3.08;;;19.10;99.90;;;;;;4948779;28;20027;-82
2023/10/07 12:05:18;;;;;;;8.80;3.45;;;;;;;;;;4962076;28;20023;-84
2023/10/07 12:07:47;;;;;;;10.27;3.90;;;19.20;99.90;;;;;;4957095;28;20069;-86
2023/10/07 12:10:16;;;;;;;11.65;3.78;;;19.50;99.90;;;;;;4966653;28;20089;-83
2023/10/07 12:12:42;;;;;;;9.90;3.88;;;;;;;;;;4958735;28;20373;-84
2023/10/07 12:15:10;;;;;;;7.47;3.28;;;19.60;99.90;;;;;;4974901;28;20077;-86
2023/10/07 12:17:36;;;;;;;7.50;3.55;;;;;;;;;;4965196;28;20029;-85
2023/10/07 12:20:03;;;;;;;10.52;3.53;;;;;;;;;;4969530;28;20065;-85
2023/10/07 12:22:29;;;;;;;10.93;3.60;;;;;;;;;;4958284;28;20534;-86
2023/10/07 12:25:04;;;;;;;9.13;3.88;;;;;;;;;;5012707;23;20047;-80
2023/10/07 12:28:09;;;;;;;;;;;;;;;;;;;;;
2023/10/07 12:38:16;;;;;;;;;;;;;;;;;;;;;
2023/10/07 12:41:55;;;;;;;8.88;4.03;;;19.80;99.90;;;;;;4844197;29;20069;-82
2023/10/07 12:49:14;;;;;;;8.10;3.22;;;19.90;99.90;;;;;;4814298;29;20042;-83
2023/10/07 12:52:26;;;;;;;;;;;;;;;;;;;;;
2023/10/07 12:56:23;;;;;;;;;;;;;;;;;;;;;
2023/10/07 13:02:17;;;;;;;7.78;3.63;;;;;;;;;;4822733;29;20488;-81
2023/10/07 13:04:58;;;;;;;8.85;3.58;;;;;;;;;;4848234;29;20029;-83
2023/10/07 13:07:35;;;;;;;10.25;3.50;;;;;;;;;;4840516;29;20041;-84
2023/10/07 13:10:43;;;;;;;8.85;3.20;;;19.90;99.90;;;;;;4902924;29;20082;-86
2023/10/07 13:13:24;;;;;;;;;;;;;;;;;;;;;
2023/10/07 13:16:37;;;;;;;8.25;3.17;;;;;;;;;;4965008;28;20035;-84
2023/10/07 13:19:36;;;;;;;;;;;;;;;;;;;;;
2023/10/07 13:35:30;;;;;;;7.32;3.25;;;20.20;99.90;;;;;;4984502;28;20042;-82
2023/10/07 13:38:13;;;;;;;9.25;3.40;;;;;;;;;;4988170;28;20034;-82
2023/10/07 13:41:06;;;;;;;5.60;3.10;;;;;;;;;;5013816;23;20034;-83
2023/10/07 13:43:40;;;;;;;9.15;2.90;;;;;;;;;;4935755;28;20626;-83
2023/10/07 13:46:13;;;;;;;6.85;3.15;;;;;;;;;;4951874;28;20046;-82
2023/10/07 13:48:42;;;;;;;6.30;3.20;;;;;;;;;;4952895;28;20023;-81
2023/10/07 13:51:11;;;;;;;6.35;3.08;;;;;;;;;;4960349;28;20027;-82
2023/10/07 13:53:51;;;;;;;13.18;3.40;;;;;;;;;;4938430;29;20068;-80
2023/10/07 13:56:32;;;;;;;11.55;3.47;;;20.50;99.90;;;;;;4956063;28;20038;-83
2023/10/07 13:59:03;;;;;;;5.90;3.22;;;20.60;99.90;;;;;;4938837;28;20040;-83
2023/10/07 14:01:29;;;;;;;;;;;20.70;99.90;;;;;;4939714;29;20119;-80
2023/10/07 14:03:56;;;;;;;9.65;3.55;;;;;;;;;;4940133;28;19953;-81
2023/10/07 14:06:22;;;;;;;11.15;3.75;;;;;;;;;;4958995;28;20216;-81
2023/10/07 14:08:52;;;;;;;6.57;3.38;;;;;;;;;;4958597;28;20042;-82
2023/10/07 14:11:22;;;;;;;7.45;3.20;;;20.60;99.90;;;;;;4952907;28;20035;-81
2023/10/07 14:13:50;;;;;;;7.00;2.90;;;;;;;;;;4955625;28;20030;-84
2023/10/07 14:16:17;;;;;;;7.95;2.95;;;;;;;;;;4935056;29;20047;-81
2023/10/07 14:18:44;;;;;;;9.77;3.10;;;20.50;99.90;;;;;;4941096;28;20140;-85
2023/10/07 14:21:10;;;;;;;10.07;3.50;;;;;;;;;;4938777;29;20034;-82
2023/10/07 14:23:37;;;;;;;10.00;3.50;;;20.50;99.90;;;;;;4931002;28;20035;-83
2023/10/07 14:26:13;;;;;;;9.20;3.80;;;20.40;99.90;;;;;;4931697;28;20366;-81
2023/10/07 14:28:44;;;;;;;10.18;3.97;;;20.60;99.90;;;;;;4934867;28;20560;-78
2023/10/07 14:31:12;;;;;;;7.60;3.85;;;20.60;99.90;;;;;;4952721;28;20036;-86
2023/10/07 14:33:38;;;;;;;7.45;4.32;;;;;;;;;;4936148;28;20035;-82
2023/10/07 14:36:09;;;;;;;9.45;3.83;;;;;;;;;;4952537;28;20034;-82
2023/10/07 14:38:36;;;;;;;8.10;2.97;;;;;;;;;;4935839;29;20043;-82
2023/10/07 14:41:02;;;;;;;6.82;3.20;;;;;;;;;;4946674;28;21439;-82
2023/10/07 14:43:29;;;;;;;9.18;3.20;;;;;;;;;;4955268;28;20027;-80
2023/10/07 14:45:55;;;;;;;6.82;3.03;;;;;;;;;;4939669;29;20031;-82
2023/10/07 14:48:22;;;;;;;6.47;3.40;;;;;;;;;;4960079;28;20035;-81
2023/10/07 14:50:51;;;;;;;7.97;3.42;;;;;;;;;;4955285;28;20031;-81
2023/10/07 14:53:17;;;;;;;8.83;3.67;;;;;;;;;;4942266;28;20038;-84
2023/10/07 14:55:46;;;;;;;6.68;3.28;;;20.60;99.90;;;;;;4953267;28;20054;-81
2023/10/07 14:58:13;;;;;;;8.07;3.17;;;20.50;99.90;;;;;;4936968;28;20103;-82
2023/10/07 15:00:57;;;;;;;7.78;4.22;;;;;;;;;;4953070;28;20027;-81
2023/10/07 15:03:23;;;;;;;7.05;3.70;;;;;;;;;;4951888;28;20031;-82
2023/10/07 15:05:49;;;;;;;6.80;3.40;;;;;;;;;;4936027;28;20046;-82
2023/10/07 15:08:18;;;;;;;6.97;3.22;;;;;;;;;;4937912;28;20031;-82
2023/10/07 15:10:48;;;;;;;6.68;2.97;;;20.50;99.90;;;;;;4940262;28;20437;-80
2023/10/07 15:13:15;;;;;;;8.80;3.70;;;20.50;99.90;;;;;;4938465;29;20083;-81
2023/10/07 15:15:42;;;;;;;6.47;3.10;;;20.40;99.90;;;;;;4953795;28;20740;-85